This is the latest recevied weather packets stored in our database for station/object W6ORV. If no packets are shown the sender has not sent any weather packets the latest 10 day(s).
| Time | Temp. | Humidity | Pressure | Rain* | Wind** | Luminosity | Snow |
|---|---|---|---|---|---|---|---|
| 1778195224 | 32.78° C | 34% | 4298.8 hPa | 0 mm | - | 587 W/m² | - |
| 1778194921 | 33.33° C | 34% | 4298.9 hPa | 0 mm | - | 599 W/m² | - |
| 1778194620 | 33.33° C | 34% | 4298.9 hPa | 0 mm | - | 615 W/m² | - |
| 1778194317 | 32.78° C | 34% | 4299.1 hPa | 0 mm | - | 632 W/m² | - |
| 1778194013 | 32.78° C | 34% | 4299.1 hPa | 0 mm | - | 611 W/m² | - |
| 1778193710 | 32.78° C | 36% | 4299.3 hPa | 0 mm | - | 629 W/m² | - |
| 1778193406 | 33.33° C | 34% | 4299.3 hPa | 0 mm | - | 653 W/m² | - |
| 1778193103 | 32.78° C | 36% | 4299.3 hPa | 0 mm | - | 656 W/m² | - |
| 1778192799 | 31.67° C | 36% | 4299.3 hPa | 0 mm | - | 658 W/m² | - |
| 1778192496 | 32.22° C | 36% | 4299.4 hPa | 0 mm | - | 671 W/m² | - |
| 1778192192 | 32.22° C | 35% | 4299.4 hPa | 0 mm | - | 684 W/m² | - |
| 1778191889 | 32.78° C | 36% | 4299.1 hPa | 0 mm | - | 698 W/m² | - |
| 1778191586 | 34.44° C | 33% | 4299.4 hPa | 0 mm | - | 694 W/m² | - |
| 1778191284 | 34.44° C | 32% | 4299.5 hPa | 0 mm | - | 663 W/m² | - |
| 1778190979 | 32.78° C | 33% | 4299.7 hPa | 0 mm | - | 649 W/m² | - |
| 1778190678 | 33.33° C | 33% | 4299.6 hPa | 0 mm | - | 696 W/m² | - |
| 1778190374 | 33.89° C | 32% | 4299.9 hPa | 0 mm | - | 734 W/m² | - |
| 1778190070 | 32.78° C | 34% | 4299.5 hPa | 0 mm | - | 726 W/m² | - |
| 1778189767 | 33.89° C | 33% | 4300 hPa | 0 mm | - | 734 W/m² | - |
| 1778189464 | 33.33° C | 34% | 4300 hPa | 0 mm | - | 739 W/m² | - |
| 1778189160 | 32.22° C | 35% | 4299.9 hPa | 0 mm | - | 750 W/m² | - |
| 1778188857 | 32.78° C | 36% | 4300.2 hPa | 0 mm | - | 752 W/m² | - |
| 1778188554 | 33.33° C | 33% | 4300.4 hPa | 0 mm | - | 769 W/m² | - |
| 1778188250 | 33.89° C | 33% | 4300.4 hPa | 0 mm | - | 767 W/m² | - |
| 1778187947 | 33.33° C | 34% | 4300.3 hPa | 0 mm | - | 764 W/m² | - |
* Rain latest hour (hover to see other rain measurements)
** Current wind speed in m/s (hover to see current wind gust speed)